createdAt,value
2018-04-16T00:01:04.682Z,11.53
2018-04-16T00:03:33.424Z,12.07
2018-04-16T00:06:01.645Z,11.70
2018-04-16T00:08:29.918Z,11.07
2018-04-16T00:10:58.084Z,12.70
2018-04-16T00:13:26.767Z,14.50
2018-04-16T00:15:54.940Z,11.47
2018-04-16T00:18:23.118Z,10.90
2018-04-16T00:20:51.187Z,12.50
2018-04-16T00:23:19.473Z,11.50
2018-04-16T00:25:47.634Z,12.23
2018-04-16T00:28:15.921Z,12.30
2018-04-16T00:30:44.087Z,11.70
2018-04-16T00:33:17.754Z,12.47
2018-04-16T00:35:51.609Z,11.47
2018-04-16T00:38:25.914Z,12.50
2018-04-16T00:40:59.614Z,11.73
2018-04-16T00:43:33.288Z,11.97
2018-04-16T00:46:06.949Z,14.53
2018-04-16T00:51:42.167Z,12.20
2018-04-16T00:54:24.082Z,12.47
2018-04-16T00:56:57.737Z,11.93
2018-04-16T00:59:31.353Z,12.00
2018-04-16T01:02:04.842Z,10.97
2018-04-16T01:04:38.792Z,12.40
2018-04-16T01:07:12.328Z,12.27
2018-04-16T01:09:58.384Z,12.30
2018-04-16T01:12:31.957Z,13.57
2018-04-16T01:15:05.587Z,14.50
2018-04-16T01:17:39.290Z,11.90
2018-04-16T01:20:12.861Z,13.40
2018-04-16T01:22:46.461Z,11.97
2018-04-16T01:25:19.936Z,13.77
2018-04-16T01:27:53.657Z,12.53
2018-04-16T01:30:27.180Z,13.50
2018-04-16T01:33:02.183Z,12.93
2018-04-16T01:35:35.743Z,12.60
2018-04-16T01:38:09.391Z,13.27
2018-04-16T01:40:42.967Z,13.27
2018-04-16T01:43:16.576Z,12.10
2018-04-16T01:45:50.321Z,12.57
2018-04-16T01:48:23.760Z,13.80
2018-04-16T01:50:57.732Z,12.17
2018-04-16T01:53:31.255Z,13.27
2018-04-16T01:56:05.681Z,13.20
2018-04-16T01:58:39.214Z,13.37
2018-04-16T02:01:12.687Z,12.57
2018-04-16T02:03:46.068Z,13.43
2018-04-16T02:06:20.368Z,12.77
2018-04-16T02:08:54.016Z,12.80
2018-04-16T02:11:27.666Z,12.60
2018-04-16T02:14:01.269Z,11.83
2018-04-16T02:16:34.664Z,12.40
2018-04-16T02:19:08.130Z,12.40
2018-04-16T02:21:41.658Z,11.30
2018-04-16T02:27:20.498Z,13.80
2018-04-16T02:29:54.284Z,13.73
2018-04-16T02:32:27.975Z,12.43
2018-04-16T02:35:01.686Z,13.10
2018-04-16T02:37:35.214Z,13.87
2018-04-16T02:40:08.956Z,11.80
2018-04-16T02:42:42.829Z,11.60
2018-04-16T02:45:16.419Z,12.33
2018-04-16T02:47:49.960Z,13.27
2018-04-16T02:50:23.427Z,12.97
2018-04-16T02:52:56.879Z,14.20
2018-04-16T02:55:30.425Z,13.00
2018-04-16T02:58:03.991Z,13.80
2018-04-16T03:00:37.541Z,12.93
2018-04-16T03:03:11.780Z,12.63
2018-04-16T03:05:45.293Z,12.27
2018-04-16T03:08:18.832Z,12.87
2018-04-16T03:10:52.412Z,13.43
2018-04-16T03:13:25.938Z,13.10
2018-04-16T03:16:14.797Z,13.10
2018-04-16T03:18:48.549Z,13.00
2018-04-16T03:21:22.052Z,15.30
2018-04-16T03:23:55.701Z,13.77
2018-04-16T03:26:29.152Z,13.93
2018-04-16T03:29:02.758Z,13.93
2018-04-16T03:31:36.344Z,12.80
2018-04-16T03:34:09.997Z,13.37
2018-04-16T03:36:43.468Z,14.17
2018-04-16T03:39:17.308Z,13.00
2018-04-16T03:41:50.808Z,12.97
2018-04-16T03:44:24.498Z,12.30
2018-04-16T03:46:58.208Z,12.23
2018-04-16T03:49:31.633Z,14.00
2018-04-16T03:52:10.016Z,15.20
2018-04-16T03:54:39.323Z,15.20
2018-04-16T03:57:07.484Z,14.53
2018-04-16T03:59:36.170Z,15.30
2018-04-16T04:02:04.457Z,13.53
2018-04-16T04:04:32.733Z,15.07
2018-04-16T04:07:01.008Z,14.30
2018-04-16T04:09:29.891Z,13.40
2018-04-16T04:11:58.068Z,13.63
2018-04-16T04:14:26.097Z,14.13
2018-04-16T04:16:54.109Z,14.73
2018-04-16T04:19:22.175Z,16.30
2018-04-16T04:21:50.345Z,12.57
2018-04-16T04:24:30.403Z,15.60
2018-04-16T04:27:10.087Z,14.77
2018-04-16T04:29:50.023Z,14.17
2018-04-16T04:32:18.882Z,15.10
2018-04-16T04:34:47.054Z,16.90
2018-04-16T04:37:15.652Z,15.40
2018-04-16T04:39:44.529Z,16.00
2018-04-16T04:42:12.702Z,17.20
2018-04-16T04:44:40.886Z,14.80
2018-04-16T04:47:10.009Z,17.30
2018-04-16T04:49:38.149Z,16.47
2018-04-16T04:52:08.237Z,15.13
2018-04-16T04:54:36.334Z,15.40
2018-04-16T04:57:04.622Z,15.80
2018-04-16T04:59:32.680Z,16.63
2018-04-16T05:02:00.970Z,16.73
2018-04-16T05:04:29.246Z,17.80
2018-04-16T05:06:58.123Z,17.30
2018-04-16T05:09:26.412Z,17.37
2018-04-16T05:11:55.711Z,17.20
2018-04-16T05:14:26.649Z,16.80
2018-04-16T05:16:54.816Z,15.67
2018-04-16T05:19:23.099Z,16.20
2018-04-16T05:21:51.267Z,19.60
2018-04-16T05:24:19.387Z,16.13
2018-04-16T05:26:48.120Z,17.97
2018-04-16T05:29:16.298Z,17.20
2018-04-16T05:31:44.468Z,18.20
2018-04-16T05:34:12.641Z,20.13
2018-04-16T05:36:40.818Z,18.90
2018-04-16T05:39:08.991Z,18.30
2018-04-16T05:41:37.162Z,19.67
2018-04-16T05:44:05.341Z,18.70
2018-04-16T05:46:33.509Z,19.57
2018-04-16T05:49:01.583Z,18.13
2018-04-16T05:51:29.756Z,18.80
2018-04-16T05:53:57.929Z,18.40
2018-04-16T05:56:27.537Z,17.07
2018-04-16T05:58:55.720Z,17.70
2018-04-16T06:01:24.816Z,17.00
2018-04-16T06:03:53.697Z,20.17
2018-04-16T06:06:21.982Z,18.63
2018-04-16T06:08:50.860Z,18.60
2018-04-16T06:11:21.598Z,20.00
2018-04-16T06:13:49.881Z,20.20
2018-04-16T06:16:18.260Z,19.13
2018-04-16T06:18:47.140Z,23.73
2018-04-16T06:21:15.314Z,21.00
2018-04-16T06:23:43.491Z,18.27
2018-04-16T06:26:14.539Z,20.20
2018-04-16T06:28:42.668Z,18.73
2018-04-16T06:31:10.776Z,18.70
2018-04-16T06:33:38.949Z,18.20
2018-04-16T06:36:07.119Z,15.70
2018-04-16T06:38:35.298Z,15.00
2018-04-16T06:41:03.365Z,15.23
2018-04-16T06:43:31.535Z,14.47
2018-04-16T06:45:59.722Z,13.53
2018-04-16T06:48:28.600Z,12.23
2018-04-16T06:50:56.773Z,13.37
2018-04-16T06:53:25.062Z,13.87
2018-04-16T06:55:53.940Z,13.50
2018-04-16T06:58:22.015Z,13.53
2018-04-16T07:00:51.735Z,12.30
2018-04-16T07:03:19.908Z,13.90
2018-04-16T07:05:48.075Z,11.60
2018-04-16T07:08:17.072Z,11.13
2018-04-16T07:10:45.235Z,11.33
2018-04-16T07:13:14.956Z,12.73
2018-04-16T07:15:43.123Z,13.17
2018-04-16T07:18:11.294Z,11.40
2018-04-16T07:20:40.806Z,11.80
2018-04-16T07:23:09.081Z,11.23
2018-04-16T07:25:37.151Z,12.60
2018-04-16T07:28:05.435Z,10.97
2018-04-16T07:30:34.419Z,10.77
2018-04-16T07:33:02.485Z,10.83
2018-04-16T07:35:31.378Z,10.30
2018-04-16T07:37:59.658Z,12.37
2018-04-16T07:40:28.336Z,12.17
2018-04-16T07:42:56.296Z,12.10
2018-04-16T07:45:24.302Z,11.70
2018-04-16T07:47:53.378Z,11.40
2018-04-16T07:50:22.364Z,12.33
2018-04-16T07:52:50.535Z,14.53
2018-04-16T07:55:18.713Z,10.90
2018-04-16T07:57:46.880Z,12.67
2018-04-16T08:00:16.704Z,11.57
2018-04-16T08:02:44.981Z,10.70
2018-04-16T08:05:13.146Z,10.20
2018-04-16T08:07:41.317Z,10.77
2018-04-16T08:10:09.497Z,11.37
2018-04-16T08:12:37.666Z,11.30
2018-04-16T08:15:05.838Z,10.90
2018-04-16T08:17:33.914Z,10.10
2018-04-16T08:20:02.190Z,9.30
2018-04-16T08:22:30.152Z,11.03
2018-04-16T08:24:59.042Z,10.23
2018-04-16T08:27:27.937Z,9.63
2018-04-16T08:29:56.109Z,10.87
2018-04-16T08:32:24.499Z,10.00
2018-04-16T08:34:52.672Z,12.60
2018-04-16T08:37:21.447Z,10.23
2018-04-16T08:39:49.737Z,9.80
2018-04-16T08:42:17.896Z,10.17
2018-04-16T08:44:46.689Z,10.00
2018-04-16T08:47:14.760Z,10.13
2018-04-16T08:49:43.649Z,10.37
2018-04-16T08:52:11.819Z,11.07
2018-04-16T08:54:39.797Z,10.80
2018-04-16T08:57:07.961Z,10.83
2018-04-16T08:59:36.659Z,9.00
2018-04-16T09:02:04.821Z,10.73
2018-04-16T09:04:32.998Z,8.93
2018-04-16T09:07:01.697Z,10.33
2018-04-16T09:09:30.582Z,10.93
2018-04-16T09:11:59.259Z,8.80
2018-04-16T09:14:27.429Z,8.73
2018-04-16T09:16:55.608Z,9.27
2018-04-16T09:19:24.561Z,11.03
2018-04-16T09:21:52.608Z,8.67
2018-04-16T09:24:20.738Z,9.73
2018-04-16T09:26:51.575Z,9.97
2018-04-16T09:29:19.754Z,8.90
2018-04-16T09:31:50.490Z,7.93
2018-04-16T09:34:18.660Z,8.60
2018-04-16T09:36:46.935Z,7.70
2018-04-16T09:39:15.004Z,8.20
2018-04-16T09:41:43.177Z,8.30
2018-04-16T09:44:11.363Z,7.13
2018-04-16T09:46:40.139Z,9.57
2018-04-16T09:49:08.311Z,8.90
2018-04-16T09:51:36.491Z,8.33
2018-04-16T09:54:04.774Z,7.60
2018-04-16T09:56:33.050Z,10.00
2018-04-16T09:59:01.221Z,8.13
2018-04-16T10:01:29.385Z,8.70
2018-04-16T10:03:57.572Z,8.07
2018-04-16T10:06:25.738Z,8.70
2018-04-16T10:08:53.803Z,9.93
2018-04-16T10:11:21.999Z,9.23
2018-04-16T10:13:50.982Z,7.50
2018-04-16T10:16:19.152Z,9.53
2018-04-16T10:18:47.329Z,8.23
2018-04-16T10:21:15.491Z,8.93
2018-04-16T10:23:43.677Z,8.70
2018-04-16T10:26:18.470Z,8.50
2018-04-16T10:28:46.781Z,10.90
2018-04-16T10:31:14.949Z,8.23
2018-04-16T10:33:43.121Z,8.07
2018-04-16T10:36:11.294Z,10.03
2018-04-16T10:38:39.470Z,6.67
2018-04-16T10:41:07.906Z,8.40
2018-04-16T10:43:36.130Z,9.00
2018-04-16T10:46:04.805Z,8.57
2018-04-16T10:48:32.959Z,7.50
2018-04-16T10:51:01.052Z,9.17
2018-04-16T10:53:29.125Z,8.47
2018-04-16T10:55:57.408Z,8.00
2018-04-16T10:58:25.578Z,8.20
2018-04-16T11:00:53.799Z,8.47
2018-04-16T11:03:21.918Z,8.33
2018-04-16T11:05:50.782Z,8.90
2018-04-16T11:08:18.819Z,9.17
2018-04-16T11:10:47.577Z,9.23
2018-04-16T11:13:16.460Z,8.83
2018-04-16T11:15:44.631Z,7.63
2018-04-16T11:18:12.916Z,8.77
2018-04-16T11:20:41.193Z,9.07
2018-04-16T11:23:09.355Z,8.73
2018-04-16T11:25:38.040Z,9.07
2018-04-16T11:28:06.834Z,9.63
2018-04-16T11:30:35.000Z,9.40
2018-04-16T11:33:03.073Z,8.37
2018-04-16T11:35:31.148Z,9.07
2018-04-16T11:37:59.367Z,8.73
2018-04-16T11:40:27.607Z,7.73
2018-04-16T11:42:55.770Z,9.17
2018-04-16T11:45:24.054Z,8.93
2018-04-16T11:47:52.216Z,7.60
2018-04-16T11:50:21.919Z,8.43
2018-04-16T11:52:50.214Z,6.73
2018-04-16T11:55:18.375Z,7.77
2018-04-16T11:57:47.168Z,7.97
2018-04-16T12:00:16.987Z,8.23
2018-04-16T12:02:45.007Z,7.10
2018-04-16T12:05:13.122Z,7.60
2018-04-16T12:07:41.406Z,8.67
2018-04-16T12:10:10.693Z,8.40
2018-04-16T12:12:38.665Z,7.47
2018-04-16T12:15:06.835Z,7.43
2018-04-16T12:17:35.009Z,7.30
2018-04-16T12:20:03.800Z,8.20
2018-04-16T12:22:31.970Z,8.27
2018-04-16T12:24:59.921Z,7.80
2018-04-16T12:27:27.877Z,6.90
2018-04-16T12:29:55.808Z,8.30
2018-04-16T12:32:24.530Z,8.13
2018-04-16T12:34:52.470Z,9.23
2018-04-16T12:37:20.566Z,7.70
2018-04-16T12:39:48.577Z,8.07
2018-04-16T12:42:16.609Z,7.43
2018-04-16T12:44:44.717Z,8.93
2018-04-16T12:47:12.813Z,8.57
2018-04-16T12:49:41.544Z,7.47
2018-04-16T12:52:09.746Z,7.03
2018-04-16T12:54:37.824Z,6.80
2018-04-16T12:57:05.892Z,8.33
2018-04-16T12:59:33.975Z,9.43
2018-04-16T13:02:02.030Z,8.23
2018-04-16T13:04:30.162Z,8.40
2018-04-16T13:06:58.457Z,9.63
2018-04-16T13:09:26.653Z,8.23
2018-04-16T13:11:54.857Z,6.63
2018-04-16T13:14:23.747Z,8.40
2018-04-16T13:16:52.684Z,13.47
2018-04-16T13:19:20.912Z,6.20
2018-04-16T13:21:50.193Z,8.20
2018-04-16T13:24:18.319Z,6.90
2018-04-16T13:26:46.281Z,7.23
2018-04-16T13:29:14.332Z,18.03
2018-04-16T13:31:43.083Z,7.27
2018-04-16T13:34:11.271Z,6.73
2018-04-16T13:36:39.442Z,6.40
2018-04-16T13:39:07.577Z,6.70
2018-04-16T13:41:35.595Z,9.23
2018-04-16T13:44:04.434Z,9.73
2018-04-16T13:46:32.512Z,7.13
2018-04-16T13:49:00.599Z,6.97
2018-04-16T13:51:28.715Z,6.53
2018-04-16T13:53:57.563Z,6.07
2018-04-16T13:56:25.557Z,7.67
2018-04-16T13:58:54.279Z,9.30
2018-04-16T14:01:22.192Z,7.70
2018-04-16T14:03:50.336Z,11.03
2018-04-16T14:06:18.443Z,6.70
2018-04-16T14:08:46.447Z,6.67
2018-04-16T14:11:14.687Z,8.90
2018-04-16T14:13:43.592Z,6.67
2018-04-16T14:16:12.903Z,6.07
2018-04-16T14:18:44.252Z,7.87
2018-04-16T14:21:13.649Z,8.47
2018-04-16T14:23:42.950Z,7.57
2018-04-16T14:26:12.321Z,7.57
2018-04-16T14:28:40.945Z,7.40
2018-04-16T14:31:10.028Z,10.37
2018-04-16T14:33:39.549Z,8.63
2018-04-16T14:36:08.763Z,7.73
2018-04-16T14:38:38.144Z,7.73
2018-04-16T14:41:07.767Z,6.90
2018-04-16T14:43:38.073Z,8.87
2018-04-16T14:46:07.585Z,9.53
2018-04-16T14:48:36.377Z,8.17
2018-04-16T14:51:05.148Z,8.10
2018-04-16T14:53:34.536Z,6.10
2018-04-16T14:56:04.793Z,6.83
2018-04-16T14:58:35.010Z,6.77
2018-04-16T15:01:04.923Z,6.10
2018-04-16T15:03:36.144Z,6.57
2018-04-16T15:06:05.778Z,7.40
2018-04-16T15:08:35.260Z,8.37
2018-04-16T15:11:04.741Z,6.40
2018-04-16T15:13:34.280Z,6.40
2018-04-16T15:16:03.682Z,7.30
2018-04-16T15:18:34.208Z,7.50
2018-04-16T15:21:03.723Z,7.20
2018-04-16T15:23:33.407Z,7.50
2018-04-16T15:26:02.936Z,7.50
2018-04-16T15:28:32.426Z,6.57
2018-04-16T15:31:01.861Z,7.37
2018-04-16T15:33:30.634Z,6.90
2018-04-16T15:36:00.044Z,8.20
2018-04-16T15:38:29.651Z,6.40
2018-04-16T15:40:59.257Z,6.80
2018-04-16T15:43:28.146Z,9.80
2018-04-16T15:45:57.859Z,9.60
2018-04-16T15:48:26.296Z,7.87
2018-04-16T15:50:56.438Z,7.00
2018-04-16T15:53:26.069Z,7.17
2018-04-16T15:55:55.776Z,7.10
2018-04-16T15:58:25.289Z,6.90
2018-04-16T16:00:53.957Z,8.53
2018-04-16T16:03:23.584Z,8.97
2018-04-16T16:05:53.799Z,6.80
2018-04-16T16:08:23.609Z,8.50
2018-04-16T16:10:52.984Z,6.70
2018-04-16T16:13:21.789Z,6.97
2018-04-16T16:15:50.194Z,8.53
2018-04-16T16:18:18.959Z,6.20
2018-04-16T16:20:49.323Z,7.47
2018-04-16T16:23:18.077Z,7.70
2018-04-16T16:25:47.780Z,7.70
2018-04-16T16:28:16.663Z,6.67
2018-04-16T16:30:46.221Z,6.17
2018-04-16T16:33:14.451Z,6.27
2018-04-16T16:35:44.053Z,6.80
2018-04-16T16:38:13.954Z,7.30
2018-04-16T16:40:43.722Z,6.87
2018-04-16T16:43:13.492Z,8.40
2018-04-16T16:45:42.276Z,7.60
2018-04-16T16:48:11.996Z,6.77
2018-04-16T16:50:40.786Z,7.77
2018-04-16T16:53:11.101Z,6.80
2018-04-16T16:55:40.925Z,7.07
2018-04-16T16:58:09.708Z,7.60
2018-04-16T17:00:38.437Z,7.13
2018-04-16T17:03:07.894Z,7.87
2018-04-16T17:05:37.501Z,8.03
2018-04-16T17:08:06.288Z,8.03
2018-04-16T17:10:36.008Z,7.53
2018-04-16T17:13:04.799Z,6.80
2018-04-16T17:15:33.877Z,7.40
2018-04-16T17:18:04.640Z,9.10
2018-04-16T17:20:32.964Z,7.50
2018-04-16T17:23:01.227Z,7.90
2018-04-16T17:25:29.486Z,8.27
2018-04-16T17:27:57.709Z,6.90
2018-04-16T17:30:26.758Z,8.03
2018-04-16T17:32:55.199Z,8.10
2018-04-16T17:35:24.389Z,8.10
2018-04-16T17:37:52.677Z,6.60
2018-04-16T17:40:20.949Z,8.10
2018-04-16T17:42:49.239Z,7.80
2018-04-16T17:45:17.611Z,7.87
2018-04-16T17:47:45.903Z,7.47
2018-04-16T17:50:14.180Z,6.60
2018-04-16T17:52:42.441Z,7.73
2018-04-16T17:55:10.822Z,9.30
2018-04-16T17:57:39.111Z,8.60
2018-04-16T18:00:07.394Z,7.10
2018-04-16T18:02:35.711Z,8.27
2018-04-16T18:05:04.832Z,8.17
2018-04-16T18:07:33.158Z,9.00
2018-04-16T18:10:01.448Z,9.23
2018-04-16T18:12:29.679Z,8.60
2018-04-16T18:14:57.970Z,9.10
2018-04-16T18:17:26.237Z,8.17
2018-04-16T18:19:54.589Z,7.80
2018-04-16T18:22:22.989Z,8.47
2018-04-16T18:24:51.242Z,8.67
2018-04-16T18:27:19.538Z,9.10
2018-04-16T18:29:47.858Z,8.23
2018-04-16T18:32:16.073Z,8.17
2018-04-16T18:34:44.356Z,7.97
2018-04-16T18:37:12.643Z,9.23
2018-04-16T18:39:40.918Z,9.80
2018-04-16T18:42:09.393Z,8.07
2018-04-16T18:44:39.798Z,7.63
2018-04-16T18:47:09.426Z,8.67
2018-04-16T18:49:39.441Z,8.30
2018-04-16T18:52:09.100Z,9.07
2018-04-16T18:54:38.529Z,7.40
2018-04-16T18:57:08.260Z,10.50
2018-04-16T18:59:37.965Z,9.97
2018-04-16T19:02:07.577Z,8.97
2018-04-16T19:04:37.182Z,10.07
2018-04-16T19:07:06.994Z,9.93
2018-04-16T19:09:36.017Z,10.43
2018-04-16T19:12:04.972Z,10.60
2018-04-16T19:14:40.847Z,10.77
2018-04-16T19:17:10.475Z,11.30
2018-04-16T19:19:39.680Z,11.50
2018-04-16T19:22:09.659Z,10.07
2018-04-16T19:24:38.544Z,11.13
2018-04-16T19:27:14.608Z,12.10
2018-04-16T19:29:43.489Z,10.77
2018-04-16T19:32:12.495Z,12.20
2018-04-16T19:34:47.350Z,11.50
2018-04-16T19:37:16.202Z,11.73
2018-04-16T19:39:44.950Z,10.53
2018-04-16T19:42:20.131Z,11.70
2018-04-16T19:44:49.746Z,10.30
2018-04-16T19:47:19.447Z,10.90
2018-04-16T19:49:54.362Z,10.70
2018-04-16T19:52:24.596Z,11.23
2018-04-16T19:54:55.450Z,11.40
2018-04-16T19:57:29.454Z,10.33
2018-04-16T19:59:59.066Z,10.93
2018-04-16T20:02:33.986Z,9.63
2018-04-16T20:05:02.877Z,10.70
2018-04-16T20:07:32.745Z,10.87
2018-04-16T20:10:02.294Z,12.87
2018-04-16T20:12:31.093Z,10.63
2018-04-16T20:15:00.580Z,9.43
2018-04-16T20:17:29.270Z,10.23
2018-04-16T20:19:58.798Z,11.80
2018-04-16T20:22:27.564Z,10.97
2018-04-16T20:24:58.296Z,10.00
2018-04-16T20:27:27.851Z,9.67
2018-04-16T20:29:58.795Z,11.30
2018-04-16T20:32:27.734Z,11.50
2018-04-16T20:34:56.983Z,12.20
2018-04-16T20:37:25.335Z,11.60
2018-04-16T20:39:53.624Z,11.53
2018-04-16T20:42:21.937Z,15.33
2018-04-16T20:44:50.937Z,11.03
2018-04-16T20:47:19.957Z,10.70
2018-04-16T20:49:48.215Z,12.13
2018-04-16T20:52:17.232Z,12.60
2018-04-16T20:54:45.533Z,11.17
2018-04-16T20:57:13.986Z,11.53
2018-04-16T20:59:43.473Z,11.80
2018-04-16T21:02:12.719Z,11.90
2018-04-16T21:04:41.461Z,11.37
2018-04-16T21:07:12.035Z,12.00
2018-04-16T21:09:42.588Z,11.77
2018-04-16T21:12:12.889Z,10.47
2018-04-16T21:14:43.180Z,12.00
2018-04-16T21:17:12.151Z,12.67
2018-04-16T21:19:41.661Z,12.43
2018-04-16T21:22:11.172Z,11.40
2018-04-16T21:24:40.346Z,11.23
2018-04-16T21:27:09.987Z,12.40
2018-04-16T21:29:40.394Z,13.30
2018-04-16T21:32:09.169Z,11.70
2018-04-16T21:34:40.932Z,11.90
2018-04-16T21:37:10.117Z,11.13
2018-04-16T21:39:38.991Z,11.67
2018-04-16T21:42:08.601Z,10.60
2018-04-16T21:44:38.422Z,11.50
2018-04-16T21:47:06.584Z,12.63
2018-04-16T21:49:36.296Z,11.40
2018-04-16T21:52:05.906Z,12.73
2018-04-16T21:54:34.894Z,11.53
2018-04-16T21:57:04.712Z,11.13
2018-04-16T21:59:32.987Z,11.70
2018-04-16T22:02:01.875Z,12.80
2018-04-16T22:04:30.765Z,11.70
2018-04-16T22:07:00.579Z,12.87
2018-04-16T22:09:29.680Z,11.93
2018-04-16T22:11:59.486Z,10.93
2018-04-16T22:14:28.371Z,11.73
2018-04-16T22:16:56.545Z,13.17
2018-04-16T22:19:26.259Z,16.30
2018-04-16T22:21:55.965Z,12.40
2018-04-16T22:24:25.779Z,13.53
2018-04-16T22:26:54.781Z,12.87
2018-04-16T22:29:23.773Z,12.80
2018-04-16T22:31:51.940Z,13.30
2018-04-16T22:34:21.544Z,13.60
2018-04-16T22:36:51.361Z,12.90
2018-04-16T22:39:21.068Z,13.33
2018-04-16T22:41:49.353Z,14.77
2018-04-16T22:44:18.230Z,13.20
2018-04-16T22:46:47.229Z,11.97
2018-04-16T22:49:15.504Z,12.97
2018-04-16T22:51:44.494Z,13.00
2018-04-16T22:54:13.489Z,13.13
2018-04-16T22:56:42.375Z,16.23
2018-04-16T22:59:11.372Z,12.87
2018-04-16T23:01:40.301Z,13.17
2018-04-16T23:04:08.539Z,12.37
2018-04-16T23:06:36.821Z,11.70
2018-04-16T23:09:06.831Z,10.77
2018-04-16T23:11:35.115Z,12.40
2018-04-16T23:14:04.110Z,10.10
2018-04-16T23:16:32.987Z,12.87
2018-04-16T23:19:01.899Z,10.97
2018-04-16T23:21:30.875Z,12.40
2018-04-16T23:24:00.693Z,12.20
2018-04-16T23:26:28.866Z,13.40
2018-04-16T23:28:57.028Z,12.23
2018-04-16T23:31:25.214Z,10.63
2018-04-16T23:33:53.489Z,13.70
2018-04-16T23:36:22.369Z,11.27
2018-04-16T23:38:51.879Z,11.87
2018-04-16T23:41:21.595Z,12.90
2018-04-16T23:43:50.474Z,11.37
2018-04-16T23:46:18.755Z,11.27
2018-04-16T23:48:46.924Z,12.43
2018-04-16T23:51:15.611Z,12.27
2018-04-16T23:53:43.898Z,12.87
2018-04-16T23:56:12.167Z,12.57
2018-04-16T23:58:41.770Z,11.80
